sensor_id;sensor_type;location;lat;lon;timestamp;P1;durP1;ratioP1;P2;durP2;ratioP2
253;SDS011;590;48.772;8.846;2023-03-03T00:01:02;17.63;;;16.50;;
253;SDS011;590;48.772;8.846;2023-03-03T00:03:30;17.30;;;16.40;;
253;SDS011;590;48.772;8.846;2023-03-03T00:05:59;16.17;;;15.37;;
253;SDS011;590;48.772;8.846;2023-03-03T00:08:28;17.17;;;16.27;;
253;SDS011;590;48.772;8.846;2023-03-03T00:10:57;16.30;;;15.50;;
253;SDS011;590;48.772;8.846;2023-03-03T00:13:29;16.63;;;15.83;;
253;SDS011;590;48.772;8.846;2023-03-03T00:16:05;16.73;;;15.90;;
253;SDS011;590;48.772;8.846;2023-03-03T00:18:41;16.67;;;15.87;;
253;SDS011;590;48.772;8.846;2023-03-03T00:21:16;15.63;;;14.83;;
253;SDS011;590;48.772;8.846;2023-03-03T00:23:54;16.33;;;15.53;;
253;SDS011;590;48.772;8.846;2023-03-03T00:26:37;15.63;;;14.83;;
253;SDS011;590;48.772;8.846;2023-03-03T00:29:21;18.07;;;16.80;;
253;SDS011;590;48.772;8.846;2023-03-03T00:31:58;16.43;;;15.63;;
253;SDS011;590;48.772;8.846;2023-03-03T00:34:44;15.90;;;15.10;;
253;SDS011;590;48.772;8.846;2023-03-03T00:37:19;17.60;;;16.70;;
253;SDS011;590;48.772;8.846;2023-03-03T00:39:54;16.13;;;15.33;;
253;SDS011;590;48.772;8.846;2023-03-03T00:42:28;16.40;;;15.60;;
253;SDS011;590;48.772;8.846;2023-03-03T00:44:56;16.27;;;15.47;;
253;SDS011;590;48.772;8.846;2023-03-03T00:47:28;15.73;;;14.93;;
253;SDS011;590;48.772;8.846;2023-03-03T00:50:12;14.63;;;13.87;;
253;SDS011;590;48.772;8.846;2023-03-03T00:52:51;14.53;;;13.83;;
253;SDS011;590;48.772;8.846;2023-03-03T00:55:25;13.93;;;13.23;;
253;SDS011;590;48.772;8.846;2023-03-03T00:57:53;15.13;;;14.33;;
253;SDS011;590;48.772;8.846;2023-03-03T01:00:21;16.00;;;15.20;;
253;SDS011;590;48.772;8.846;2023-03-03T01:02:51;16.53;;;15.73;;
253;SDS011;590;48.772;8.846;2023-03-03T01:05:19;15.27;;;14.47;;
253;SDS011;590;48.772;8.846;2023-03-03T01:07:47;15.40;;;14.60;;
253;SDS011;590;48.772;8.846;2023-03-03T01:10:15;15.77;;;14.97;;
253;SDS011;590;48.772;8.846;2023-03-03T01:12:44;14.93;;;14.13;;
253;SDS011;590;48.772;8.846;2023-03-03T01:15:13;15.53;;;14.73;;
253;SDS011;590;48.772;8.846;2023-03-03T01:17:41;14.25;;;13.55;;
253;SDS011;590;48.772;8.846;2023-03-03T01:20:12;15.80;;;15.00;;
253;SDS011;590;48.772;8.846;2023-03-03T01:22:41;15.50;;;14.70;;
253;SDS011;590;48.772;8.846;2023-03-03T01:25:09;14.67;;;13.93;;
253;SDS011;590;48.772;8.846;2023-03-03T01:27:37;14.30;;;13.60;;
253;SDS011;590;48.772;8.846;2023-03-03T01:30:06;15.57;;;14.77;;
253;SDS011;590;48.772;8.846;2023-03-03T01:32:35;13.73;;;13.03;;
253;SDS011;590;48.772;8.846;2023-03-03T01:35:03;14.53;;;13.80;;
253;SDS011;590;48.772;8.846;2023-03-03T01:37:34;14.63;;;13.90;;
253;SDS011;590;48.772;8.846;2023-03-03T01:40:03;13.67;;;12.97;;
253;SDS011;590;48.772;8.846;2023-03-03T01:42:32;14.17;;;13.47;;
253;SDS011;590;48.772;8.846;2023-03-03T01:45:09;14.07;;;13.37;;
253;SDS011;590;48.772;8.846;2023-03-03T01:47:45;15.20;;;14.40;;
253;SDS011;590;48.772;8.846;2023-03-03T01:50:17;14.73;;;13.97;;
253;SDS011;590;48.772;8.846;2023-03-03T01:52:56;14.90;;;14.10;;
253;SDS011;590;48.772;8.846;2023-03-03T01:55:27;15.17;;;14.37;;
253;SDS011;590;48.772;8.846;2023-03-03T01:58:01;13.20;;;12.50;;
253;SDS011;590;48.772;8.846;2023-03-03T02:00:32;14.27;;;13.57;;
253;SDS011;590;48.772;8.846;2023-03-03T02:03:03;15.20;;;14.40;;
253;SDS011;590;48.772;8.846;2023-03-03T02:05:31;14.30;;;13.60;;
253;SDS011;590;48.772;8.846;2023-03-03T02:08:02;13.60;;;12.90;;
253;SDS011;590;48.772;8.846;2023-03-03T02:10:31;13.77;;;13.07;;
253;SDS011;590;48.772;8.846;2023-03-03T02:12:59;13.50;;;12.80;;
253;SDS011;590;48.772;8.846;2023-03-03T02:15:28;14.27;;;13.57;;
253;SDS011;590;48.772;8.846;2023-03-03T02:17:58;13.90;;;13.20;;
253;SDS011;590;48.772;8.846;2023-03-03T02:20:31;13.17;;;12.47;;
253;SDS011;590;48.772;8.846;2023-03-03T02:23:08;13.70;;;13.00;;
253;SDS011;590;48.772;8.846;2023-03-03T02:25:44;13.17;;;12.47;;
253;SDS011;590;48.772;8.846;2023-03-03T02:28:26;13.60;;;12.90;;
253;SDS011;590;48.772;8.846;2023-03-03T02:30:56;12.97;;;12.27;;
253;SDS011;590;48.772;8.846;2023-03-03T02:33:25;14.00;;;13.30;;
253;SDS011;590;48.772;8.846;2023-03-03T02:35:54;13.27;;;12.57;;
253;SDS011;590;48.772;8.846;2023-03-03T02:38:24;14.20;;;13.50;;
253;SDS011;590;48.772;8.846;2023-03-03T02:40:58;14.13;;;13.43;;
253;SDS011;590;48.772;8.846;2023-03-03T02:43:32;13.20;;;12.50;;
253;SDS011;590;48.772;8.846;2023-03-03T02:46:06;12.93;;;12.23;;
253;SDS011;590;48.772;8.846;2023-03-03T02:48:34;13.97;;;13.27;;
253;SDS011;590;48.772;8.846;2023-03-03T02:51:02;13.73;;;13.03;;
253;SDS011;590;48.772;8.846;2023-03-03T02:53:30;13.40;;;12.70;;
253;SDS011;590;48.772;8.846;2023-03-03T02:55:58;13.20;;;12.50;;
253;SDS011;590;48.772;8.846;2023-03-03T02:58:26;12.93;;;12.23;;
253;SDS011;590;48.772;8.846;2023-03-03T03:00:55;12.67;;;12.00;;
253;SDS011;590;48.772;8.846;2023-03-03T03:03:23;13.53;;;12.83;;
253;SDS011;590;48.772;8.846;2023-03-03T03:05:51;12.27;;;11.67;;
253;SDS011;590;48.772;8.846;2023-03-03T03:08:19;12.93;;;12.23;;
253;SDS011;590;48.772;8.846;2023-03-03T03:10:47;12.10;;;11.50;;
253;SDS011;590;48.772;8.846;2023-03-03T03:13:16;13.00;;;12.30;;
253;SDS011;590;48.772;8.846;2023-03-03T03:15:44;13.17;;;12.47;;
253;SDS011;590;48.772;8.846;2023-03-03T03:18:14;13.10;;;12.40;;
253;SDS011;590;48.772;8.846;2023-03-03T03:20:42;13.03;;;12.33;;
253;SDS011;590;48.772;8.846;2023-03-03T03:23:13;12.20;;;11.60;;
253;SDS011;590;48.772;8.846;2023-03-03T03:25:41;13.00;;;12.30;;
253;SDS011;590;48.772;8.846;2023-03-03T03:28:11;12.00;;;11.40;;
253;SDS011;590;48.772;8.846;2023-03-03T03:30:41;12.23;;;11.63;;
253;SDS011;590;48.772;8.846;2023-03-03T03:33:11;12.37;;;11.77;;
253;SDS011;590;48.772;8.846;2023-03-03T03:35:40;12.80;;;12.10;;
253;SDS011;590;48.772;8.846;2023-03-03T03:38:11;12.00;;;11.40;;
253;SDS011;590;48.772;8.846;2023-03-03T03:40:39;12.23;;;11.63;;
253;SDS011;590;48.772;8.846;2023-03-03T03:43:08;12.00;;;11.40;;
253;SDS011;590;48.772;8.846;2023-03-03T03:45:36;13.10;;;12.40;;
253;SDS011;590;48.772;8.846;2023-03-03T03:48:04;12.20;;;11.60;;
253;SDS011;590;48.772;8.846;2023-03-03T03:50:32;12.10;;;11.50;;
253;SDS011;590;48.772;8.846;2023-03-03T03:53:02;11.70;;;11.10;;
253;SDS011;590;48.772;8.846;2023-03-03T03:55:31;11.23;;;10.63;;
253;SDS011;590;48.772;8.846;2023-03-03T03:57:59;12.30;;;11.70;;
253;SDS011;590;48.772;8.846;2023-03-03T04:00:27;11.53;;;10.93;;
253;SDS011;590;48.772;8.846;2023-03-03T04:02:55;11.93;;;11.33;;
253;SDS011;590;48.772;8.846;2023-03-03T04:05:23;12.87;;;12.17;;
253;SDS011;590;48.772;8.846;2023-03-03T04:07:51;11.87;;;11.27;;
253;SDS011;590;48.772;8.846;2023-03-03T04:10:20;12.03;;;11.43;;
253;SDS011;590;48.772;8.846;2023-03-03T04:12:48;12.67;;;12.00;;
253;SDS011;590;48.772;8.846;2023-03-03T04:15:16;12.20;;;11.60;;
253;SDS011;590;48.772;8.846;2023-03-03T04:17:44;11.50;;;10.90;;
253;SDS011;590;48.772;8.846;2023-03-03T04:20:13;11.73;;;11.13;;
253;SDS011;590;48.772;8.846;2023-03-03T04:22:42;11.63;;;11.03;;
253;SDS011;590;48.772;8.846;2023-03-03T04:25:10;10.70;;;10.10;;
253;SDS011;590;48.772;8.846;2023-03-03T04:27:42;12.53;;;11.90;;
253;SDS011;590;48.772;8.846;2023-03-03T04:30:11;12.03;;;11.43;;
253;SDS011;590;48.772;8.846;2023-03-03T04:32:40;11.77;;;11.17;;
253;SDS011;590;48.772;8.846;2023-03-03T04:35:08;11.07;;;10.47;;
253;SDS011;590;48.772;8.846;2023-03-03T04:37:37;12.20;;;11.60;;
253;SDS011;590;48.772;8.846;2023-03-03T04:40:06;11.80;;;11.20;;
253;SDS011;590;48.772;8.846;2023-03-03T04:42:35;12.10;;;11.50;;
253;SDS011;590;48.772;8.846;2023-03-03T04:45:05;11.50;;;10.90;;
253;SDS011;590;48.772;8.846;2023-03-03T04:47:34;11.80;;;11.20;;
253;SDS011;590;48.772;8.846;2023-03-03T04:50:02;12.20;;;11.60;;
253;SDS011;590;48.772;8.846;2023-03-03T04:52:30;13.10;;;12.40;;
253;SDS011;590;48.772;8.846;2023-03-03T04:54:58;11.90;;;11.30;;
253;SDS011;590;48.772;8.846;2023-03-03T04:57:26;11.87;;;11.27;;
253;SDS011;590;48.772;8.846;2023-03-03T04:59:54;11.70;;;11.10;;
253;SDS011;590;48.772;8.846;2023-03-03T05:02:24;11.17;;;10.57;;
253;SDS011;590;48.772;8.846;2023-03-03T05:04:52;11.40;;;10.80;;
253;SDS011;590;48.772;8.846;2023-03-03T05:07:20;12.80;;;12.13;;
253;SDS011;590;48.772;8.846;2023-03-03T05:09:48;11.40;;;10.80;;
253;SDS011;590;48.772;8.846;2023-03-03T05:12:16;10.80;;;10.20;;
253;SDS011;590;48.772;8.846;2023-03-03T05:14:44;12.30;;;11.70;;
253;SDS011;590;48.772;8.846;2023-03-03T05:17:12;12.23;;;11.63;;
253;SDS011;590;48.772;8.846;2023-03-03T05:19:41;11.87;;;11.27;;
253;SDS011;590;48.772;8.846;2023-03-03T05:22:09;12.10;;;11.50;;
253;SDS011;590;48.772;8.846;2023-03-03T05:24:37;13.00;;;12.30;;
253;SDS011;590;48.772;8.846;2023-03-03T05:27:05;11.97;;;11.37;;
253;SDS011;590;48.772;8.846;2023-03-03T05:29:33;12.40;;;11.80;;
253;SDS011;590;48.772;8.846;2023-03-03T05:32:01;11.63;;;11.03;;
253;SDS011;590;48.772;8.846;2023-03-03T05:34:29;12.27;;;11.67;;
253;SDS011;590;48.772;8.846;2023-03-03T05:36:59;12.17;;;11.57;;
253;SDS011;590;48.772;8.846;2023-03-03T05:39:28;11.50;;;10.90;;
253;SDS011;590;48.772;8.846;2023-03-03T05:41:56;11.70;;;11.10;;
253;SDS011;590;48.772;8.846;2023-03-03T05:44:25;13.23;;;12.53;;
253;SDS011;590;48.772;8.846;2023-03-03T05:46:54;12.83;;;12.13;;
253;SDS011;590;48.772;8.846;2023-03-03T05:49:24;11.40;;;10.80;;
253;SDS011;590;48.772;8.846;2023-03-03T05:51:52;12.17;;;11.57;;
253;SDS011;590;48.772;8.846;2023-03-03T05:54:21;11.87;;;11.27;;
253;SDS011;590;48.772;8.846;2023-03-03T05:56:49;11.60;;;11.00;;
253;SDS011;590;48.772;8.846;2023-03-03T05:59:17;12.10;;;11.50;;
253;SDS011;590;48.772;8.846;2023-03-03T06:01:45;14.00;;;13.30;;
253;SDS011;590;48.772;8.846;2023-03-03T06:04:13;12.30;;;11.70;;
253;SDS011;590;48.772;8.846;2023-03-03T06:06:41;12.53;;;11.90;;
253;SDS011;590;48.772;8.846;2023-03-03T06:09:10;12.63;;;11.97;;
253;SDS011;590;48.772;8.846;2023-03-03T06:11:39;11.50;;;10.90;;
253;SDS011;590;48.772;8.846;2023-03-03T06:14:07;12.97;;;12.27;;
253;SDS011;590;48.772;8.846;2023-03-03T06:16:35;13.63;;;12.93;;
253;SDS011;590;48.772;8.846;2023-03-03T06:19:03;11.90;;;11.30;;
253;SDS011;590;48.772;8.846;2023-03-03T06:21:31;12.77;;;12.07;;
253;SDS011;590;48.772;8.846;2023-03-03T06:23:59;13.00;;;12.30;;
253;SDS011;590;48.772;8.846;2023-03-03T06:26:27;13.00;;;12.30;;
253;SDS011;590;48.772;8.846;2023-03-03T06:28:56;12.07;;;11.47;;
253;SDS011;590;48.772;8.846;2023-03-03T06:31:24;13.30;;;12.60;;
253;SDS011;590;48.772;8.846;2023-03-03T06:33:53;12.17;;;11.57;;
253;SDS011;590;48.772;8.846;2023-03-03T06:36:21;12.17;;;11.57;;
253;SDS011;590;48.772;8.846;2023-03-03T06:38:50;12.73;;;12.03;;
253;SDS011;590;48.772;8.846;2023-03-03T06:41:18;12.87;;;12.17;;
253;SDS011;590;48.772;8.846;2023-03-03T06:43:46;13.30;;;12.60;;
253;SDS011;590;48.772;8.846;2023-03-03T06:46:15;11.53;;;10.93;;
253;SDS011;590;48.772;8.846;2023-03-03T06:48:43;12.80;;;12.10;;
253;SDS011;590;48.772;8.846;2023-03-03T06:51:16;12.90;;;12.20;;
253;SDS011;590;48.772;8.846;2023-03-03T06:53:50;13.63;;;12.93;;
253;SDS011;590;48.772;8.846;2023-03-03T06:56:21;14.00;;;13.30;;
253;SDS011;590;48.772;8.846;2023-03-03T06:58:52;15.03;;;14.23;;
253;SDS011;590;48.772;8.846;2023-03-03T07:01:22;13.43;;;12.73;;
253;SDS011;590;48.772;8.846;2023-03-03T07:03:50;13.27;;;12.57;;
253;SDS011;590;48.772;8.846;2023-03-03T07:06:20;14.07;;;13.37;;
253;SDS011;590;48.772;8.846;2023-03-03T07:08:50;12.80;;;12.10;;
253;SDS011;590;48.772;8.846;2023-03-03T07:11:19;13.37;;;12.67;;
253;SDS011;590;48.772;8.846;2023-03-03T07:13:49;13.23;;;12.53;;
253;SDS011;590;48.772;8.846;2023-03-03T07:16:19;14.17;;;13.47;;
253;SDS011;590;48.772;8.846;2023-03-03T07:18:54;13.20;;;12.50;;
253;SDS011;590;48.772;8.846;2023-03-03T07:21:29;13.50;;;12.80;;
253;SDS011;590;48.772;8.846;2023-03-03T07:24:00;13.80;;;13.10;;
253;SDS011;590;48.772;8.846;2023-03-03T07:26:39;12.90;;;12.20;;
253;SDS011;590;48.772;8.846;2023-03-03T07:29:12;13.60;;;12.90;;
253;SDS011;590;48.772;8.846;2023-03-03T07:31:47;14.30;;;13.60;;
253;SDS011;590;48.772;8.846;2023-03-03T07:34:18;13.93;;;13.23;;
253;SDS011;590;48.772;8.846;2023-03-03T07:36:48;13.47;;;12.77;;
253;SDS011;590;48.772;8.846;2023-03-03T07:39:20;14.50;;;13.80;;
253;SDS011;590;48.772;8.846;2023-03-03T07:41:55;13.70;;;13.00;;
253;SDS011;590;48.772;8.846;2023-03-03T07:44:30;14.33;;;13.63;;
253;SDS011;590;48.772;8.846;2023-03-03T07:47:11;13.50;;;12.80;;
253;SDS011;590;48.772;8.846;2023-03-03T07:49:44;15.10;;;14.30;;
253;SDS011;590;48.772;8.846;2023-03-03T07:52:27;15.10;;;14.30;;
253;SDS011;590;48.772;8.846;2023-03-03T07:54:59;13.90;;;13.20;;
253;SDS011;590;48.772;8.846;2023-03-03T07:57:32;14.83;;;14.03;;
253;SDS011;590;48.772;8.846;2023-03-03T08:00:41;14.47;;;13.77;;
253;SDS011;590;48.772;8.846;2023-03-03T08:03:21;15.07;;;14.27;;
253;SDS011;590;48.772;8.846;2023-03-03T08:05:49;14.90;;;14.13;;
253;SDS011;590;48.772;8.846;2023-03-03T08:08:26;14.60;;;13.90;;
253;SDS011;590;48.772;8.846;2023-03-03T08:10:56;15.73;;;14.93;;
253;SDS011;590;48.772;8.846;2023-03-03T08:13:27;14.90;;;14.10;;
253;SDS011;590;48.772;8.846;2023-03-03T08:15:58;15.17;;;14.37;;
253;SDS011;590;48.772;8.846;2023-03-03T08:18:33;16.50;;;15.70;;
253;SDS011;590;48.772;8.846;2023-03-03T08:21:02;15.13;;;14.33;;
253;SDS011;590;48.772;8.846;2023-03-03T08:23:35;15.90;;;15.10;;
253;SDS011;590;48.772;8.846;2023-03-03T08:26:03;15.70;;;14.90;;
253;SDS011;590;48.772;8.846;2023-03-03T08:28:31;15.53;;;14.73;;
253;SDS011;590;48.772;8.846;2023-03-03T08:30:59;15.60;;;14.80;;
253;SDS011;590;48.772;8.846;2023-03-03T08:33:44;14.67;;;13.93;;
253;SDS011;590;48.772;8.846;2023-03-03T08:36:13;15.23;;;14.43;;
253;SDS011;590;48.772;8.846;2023-03-03T08:38:41;16.23;;;15.43;;
253;SDS011;590;48.772;8.846;2023-03-03T08:41:09;16.47;;;15.67;;
253;SDS011;590;48.772;8.846;2023-03-03T08:43:37;16.07;;;15.27;;
253;SDS011;590;48.772;8.846;2023-03-03T08:46:05;15.67;;;14.87;;
253;SDS011;590;48.772;8.846;2023-03-03T08:48:35;16.43;;;15.63;;
253;SDS011;590;48.772;8.846;2023-03-03T08:51:05;16.40;;;15.60;;
253;SDS011;590;48.772;8.846;2023-03-03T08:53:33;14.87;;;14.10;;
253;SDS011;590;48.772;8.846;2023-03-03T08:56:03;15.80;;;15.00;;
253;SDS011;590;48.772;8.846;2023-03-03T08:58:32;15.77;;;14.97;;
253;SDS011;590;48.772;8.846;2023-03-03T09:01:02;16.20;;;15.40;;
253;SDS011;590;48.772;8.846;2023-03-03T09:03:30;15.67;;;14.87;;
253;SDS011;590;48.772;8.846;2023-03-03T09:05:58;15.00;;;14.20;;
253;SDS011;590;48.772;8.846;2023-03-03T09:08:27;15.73;;;14.93;;
253;SDS011;590;48.772;8.846;2023-03-03T09:10:55;15.27;;;14.47;;
253;SDS011;590;48.772;8.846;2023-03-03T09:13:23;15.00;;;14.20;;
253;SDS011;590;48.772;8.846;2023-03-03T09:15:52;15.67;;;14.87;;
253;SDS011;590;48.772;8.846;2023-03-03T09:18:21;15.83;;;15.03;;
253;SDS011;590;48.772;8.846;2023-03-03T09:20:56;15.50;;;14.70;;
253;SDS011;590;48.772;8.846;2023-03-03T09:23:28;15.23;;;14.43;;
253;SDS011;590;48.772;8.846;2023-03-03T09:28:54;15.27;;;14.47;;
253;SDS011;590;48.772;8.846;2023-03-03T09:31:26;15.10;;;14.30;;
253;SDS011;590;48.772;8.846;2023-03-03T09:33:58;15.60;;;14.80;;
253;SDS011;590;48.772;8.846;2023-03-03T09:36:28;14.83;;;14.03;;
253;SDS011;590;48.772;8.846;2023-03-03T09:39:09;14.43;;;13.73;;
253;SDS011;590;48.772;8.846;2023-03-03T09:41:52;15.20;;;14.40;;
253;SDS011;590;48.772;8.846;2023-03-03T09:45:00;14.20;;;13.50;;
253;SDS011;590;48.772;8.846;2023-03-03T09:47:54;15.33;;;14.53;;
253;SDS011;590;48.772;8.846;2023-03-03T09:50:35;14.80;;;14.00;;
253;SDS011;590;48.772;8.846;2023-03-03T09:53:15;14.53;;;13.83;;
253;SDS011;590;48.772;8.846;2023-03-03T09:55:55;15.17;;;14.37;;
253;SDS011;590;48.772;8.846;2023-03-03T09:58:30;13.70;;;13.00;;
253;SDS011;590;48.772;8.846;2023-03-03T10:01:19;15.07;;;14.27;;
253;SDS011;590;48.772;8.846;2023-03-03T10:04:06;13.63;;;12.93;;
253;SDS011;590;48.772;8.846;2023-03-03T10:06:59;14.23;;;13.53;;
253;SDS011;590;48.772;8.846;2023-03-03T10:09:42;13.90;;;13.20;;
253;SDS011;590;48.772;8.846;2023-03-03T10:12:26;14.17;;;13.47;;
253;SDS011;590;48.772;8.846;2023-03-03T10:15:02;13.60;;;12.90;;
253;SDS011;590;48.772;8.846;2023-03-03T10:17:44;13.83;;;13.13;;
253;SDS011;590;48.772;8.846;2023-03-03T10:20:23;13.30;;;12.60;;
253;SDS011;590;48.772;8.846;2023-03-03T10:23:17;13.13;;;12.43;;
253;SDS011;590;48.772;8.846;2023-03-03T10:25:50;14.03;;;13.33;;
253;SDS011;590;48.772;8.846;2023-03-03T10:28:29;11.77;;;11.17;;
253;SDS011;590;48.772;8.846;2023-03-03T10:31:21;14.27;;;13.57;;
253;SDS011;590;48.772;8.846;2023-03-03T10:33:58;12.57;;;11.93;;
253;SDS011;590;48.772;8.846;2023-03-03T10:36:34;13.63;;;12.93;;
253;SDS011;590;48.772;8.846;2023-03-03T10:39:21;12.77;;;12.07;;
253;SDS011;590;48.772;8.846;2023-03-03T10:42:15;13.20;;;12.50;;
253;SDS011;590;48.772;8.846;2023-03-03T10:44:54;12.97;;;12.27;;
253;SDS011;590;48.772;8.846;2023-03-03T10:47:46;12.20;;;11.60;;
253;SDS011;590;48.772;8.846;2023-03-03T10:50:31;12.27;;;11.67;;
253;SDS011;590;48.772;8.846;2023-03-03T10:53:08;12.80;;;12.10;;
253;SDS011;590;48.772;8.846;2023-03-03T10:55:48;12.23;;;11.63;;
253;SDS011;590;48.772;8.846;2023-03-03T10:58:33;12.30;;;11.70;;
253;SDS011;590;48.772;8.846;2023-03-03T11:01:16;11.60;;;11.00;;
253;SDS011;590;48.772;8.846;2023-03-03T11:06:49;12.73;;;12.03;;
253;SDS011;590;48.772;8.846;2023-03-03T11:09:30;11.40;;;10.80;;
253;SDS011;590;48.772;8.846;2023-03-03T11:12:11;11.53;;;10.93;;
253;SDS011;590;48.772;8.846;2023-03-03T11:14:53;12.30;;;11.70;;
253;SDS011;590;48.772;8.846;2023-03-03T11:17:50;11.70;;;11.10;;
253;SDS011;590;48.772;8.846;2023-03-03T11:20:30;11.67;;;11.07;;
253;SDS011;590;48.772;8.846;2023-03-03T11:23:08;11.83;;;11.23;;
253;SDS011;590;48.772;8.846;2023-03-03T11:25:52;11.93;;;11.33;;
253;SDS011;590;48.772;8.846;2023-03-03T11:28:30;12.07;;;11.47;;
253;SDS011;590;48.772;8.846;2023-03-03T11:31:12;11.17;;;10.57;;
253;SDS011;590;48.772;8.846;2023-03-03T11:33:51;11.10;;;10.50;;
253;SDS011;590;48.772;8.846;2023-03-03T11:36:26;10.60;;;10.00;;
253;SDS011;590;48.772;8.846;2023-03-03T11:39:01;11.20;;;10.60;;
253;SDS011;590;48.772;8.846;2023-03-03T11:41:31;10.67;;;10.07;;
253;SDS011;590;48.772;8.846;2023-03-03T11:44:16;11.33;;;10.73;;
253;SDS011;590;48.772;8.846;2023-03-03T11:46:48;10.90;;;10.30;;
253;SDS011;590;48.772;8.846;2023-03-03T11:49:22;10.70;;;10.10;;
253;SDS011;590;48.772;8.846;2023-03-03T11:51:59;11.30;;;10.70;;
253;SDS011;590;48.772;8.846;2023-03-03T11:54:33;10.93;;;10.33;;
253;SDS011;590;48.772;8.846;2023-03-03T11:57:12;11.40;;;10.80;;
253;SDS011;590;48.772;8.846;2023-03-03T12:03:01;11.23;;;10.63;;
253;SDS011;590;48.772;8.846;2023-03-03T12:05:54;10.10;;;9.60;;
253;SDS011;590;48.772;8.846;2023-03-03T12:08:29;10.40;;;9.90;;
253;SDS011;590;48.772;8.846;2023-03-03T12:11:09;11.10;;;10.50;;
253;SDS011;590;48.772;8.846;2023-03-03T12:13:46;10.80;;;10.20;;
253;SDS011;590;48.772;8.846;2023-03-03T12:16:25;10.37;;;9.87;;
253;SDS011;590;48.772;8.846;2023-03-03T12:19:08;10.60;;;10.00;;
253;SDS011;590;48.772;8.846;2023-03-03T12:21:52;10.47;;;9.93;;
253;SDS011;590;48.772;8.846;2023-03-03T12:27:33;9.73;;;9.23;;
253;SDS011;590;48.772;8.846;2023-03-03T12:30:11;10.07;;;9.57;;
253;SDS011;590;48.772;8.846;2023-03-03T12:32:52;10.40;;;9.87;;
253;SDS011;590;48.772;8.846;2023-03-03T12:35:32;10.63;;;10.03;;
253;SDS011;590;48.772;8.846;2023-03-03T12:38:11;10.87;;;10.27;;
253;SDS011;590;48.772;8.846;2023-03-03T12:40:50;11.47;;;10.87;;
253;SDS011;590;48.772;8.846;2023-03-03T12:43:32;11.10;;;10.50;;
253;SDS011;590;48.772;8.846;2023-03-03T12:46:13;9.13;;;8.63;;
253;SDS011;590;48.772;8.846;2023-03-03T12:48:54;9.73;;;9.23;;
253;SDS011;590;48.772;8.846;2023-03-03T12:51:28;9.87;;;9.37;;
253;SDS011;590;48.772;8.846;2023-03-03T12:54:09;10.60;;;10.00;;
253;SDS011;590;48.772;8.846;2023-03-03T12:56:55;10.43;;;9.90;;
253;SDS011;590;48.772;8.846;2023-03-03T12:59:30;10.23;;;9.73;;
253;SDS011;590;48.772;8.846;2023-03-03T13:05:13;9.80;;;9.30;;
253;SDS011;590;48.772;8.846;2023-03-03T13:07:48;10.20;;;9.70;;
253;SDS011;590;48.772;8.846;2023-03-03T13:10:25;10.10;;;9.60;;
253;SDS011;590;48.772;8.846;2023-03-03T13:13:00;9.90;;;9.40;;
253;SDS011;590;48.772;8.846;2023-03-03T13:15:33;9.90;;;9.40;;
253;SDS011;590;48.772;8.846;2023-03-03T13:21:02;11.30;;;10.70;;
253;SDS011;590;48.772;8.846;2023-03-03T13:23:37;10.03;;;9.53;;
253;SDS011;590;48.772;8.846;2023-03-03T13:26:15;9.90;;;9.40;;
253;SDS011;590;48.772;8.846;2023-03-03T13:28:54;9.47;;;8.97;;
253;SDS011;590;48.772;8.846;2023-03-03T13:31:28;9.60;;;9.10;;
253;SDS011;590;48.772;8.846;2023-03-03T13:34:00;10.17;;;9.67;;
253;SDS011;590;48.772;8.846;2023-03-03T13:36:29;9.90;;;9.40;;
253;SDS011;590;48.772;8.846;2023-03-03T13:39:06;10.60;;;10.00;;
253;SDS011;590;48.772;8.846;2023-03-03T13:41:46;9.33;;;8.83;;
253;SDS011;590;48.772;8.846;2023-03-03T13:44:23;9.30;;;8.80;;
253;SDS011;590;48.772;8.846;2023-03-03T13:47:05;10.70;;;10.10;;
253;SDS011;590;48.772;8.846;2023-03-03T13:49:44;9.10;;;8.60;;
253;SDS011;590;48.772;8.846;2023-03-03T13:52:22;9.87;;;9.37;;
253;SDS011;590;48.772;8.846;2023-03-03T13:54:53;8.50;;;8.00;;
253;SDS011;590;48.772;8.846;2023-03-03T13:57:54;9.27;;;8.77;;
253;SDS011;590;48.772;8.846;2023-03-03T14:00:31;9.70;;;9.20;;
253;SDS011;590;48.772;8.846;2023-03-03T14:06:21;9.27;;;8.77;;
253;SDS011;590;48.772;8.846;2023-03-03T14:09:02;9.63;;;9.13;;
253;SDS011;590;48.772;8.846;2023-03-03T14:11:47;9.60;;;9.10;;
253;SDS011;590;48.772;8.846;2023-03-03T14:14:32;9.73;;;9.23;;
253;SDS011;590;48.772;8.846;2023-03-03T14:17:14;9.53;;;9.03;;
253;SDS011;590;48.772;8.846;2023-03-03T14:19:55;10.03;;;9.53;;
253;SDS011;590;48.772;8.846;2023-03-03T14:22:32;10.83;;;10.23;;
253;SDS011;590;48.772;8.846;2023-03-03T14:25:08;9.40;;;8.90;;
253;SDS011;590;48.772;8.846;2023-03-03T14:27:39;9.77;;;9.27;;
253;SDS011;590;48.772;8.846;2023-03-03T14:30:25;10.17;;;9.67;;
253;SDS011;590;48.772;8.846;2023-03-03T14:33:01;9.43;;;8.93;;
253;SDS011;590;48.772;8.846;2023-03-03T14:35:41;10.07;;;9.57;;
253;SDS011;590;48.772;8.846;2023-03-03T14:38:12;9.60;;;9.10;;
253;SDS011;590;48.772;8.846;2023-03-03T14:40:41;9.97;;;9.47;;
253;SDS011;590;48.772;8.846;2023-03-03T14:43:24;9.53;;;9.03;;
253;SDS011;590;48.772;8.846;2023-03-03T14:45:54;8.90;;;8.40;;
253;SDS011;590;48.772;8.846;2023-03-03T14:48:23;9.57;;;9.07;;
253;SDS011;590;48.772;8.846;2023-03-03T14:50:54;10.30;;;9.80;;
253;SDS011;590;48.772;8.846;2023-03-03T14:53:30;10.53;;;9.97;;
253;SDS011;590;48.772;8.846;2023-03-03T14:56:14;9.47;;;8.97;;
253;SDS011;590;48.772;8.846;2023-03-03T14:58:49;9.80;;;9.30;;
253;SDS011;590;48.772;8.846;2023-03-03T15:01:23;9.80;;;9.30;;
253;SDS011;590;48.772;8.846;2023-03-03T15:03:59;10.90;;;10.30;;
253;SDS011;590;48.772;8.846;2023-03-03T15:06:29;10.90;;;9.93;;
253;SDS011;590;48.772;8.846;2023-03-03T15:12:02;10.60;;;10.03;;
253;SDS011;590;48.772;8.846;2023-03-03T15:14:45;11.47;;;10.57;;
253;SDS011;590;48.772;8.846;2023-03-03T15:20:50;10.70;;;10.10;;
253;SDS011;590;48.772;8.846;2023-03-03T15:23:38;10.03;;;9.53;;
253;SDS011;590;48.772;8.846;2023-03-03T15:26:18;11.10;;;10.50;;
253;SDS011;590;48.772;8.846;2023-03-03T15:28:53;10.23;;;9.73;;
253;SDS011;590;48.772;8.846;2023-03-03T15:31:30;10.93;;;10.33;;
253;SDS011;590;48.772;8.846;2023-03-03T15:34:14;13.47;;;10.97;;
253;SDS011;590;48.772;8.846;2023-03-03T15:36:55;11.70;;;9.40;;
253;SDS011;590;48.772;8.846;2023-03-03T15:39:30;10.60;;;10.00;;
253;SDS011;590;48.772;8.846;2023-03-03T15:42:10;10.67;;;10.07;;
253;SDS011;590;48.772;8.846;2023-03-03T15:56:25;10.10;;;9.50;;
253;SDS011;590;48.772;8.846;2023-03-03T15:59:21;10.03;;;8.30;;
253;SDS011;590;48.772;8.846;2023-03-03T16:02:16;9.00;;;8.50;;
253;SDS011;590;48.772;8.846;2023-03-03T16:04:48;9.70;;;9.20;;
253;SDS011;590;48.772;8.846;2023-03-03T16:07:25;9.70;;;9.20;;
253;SDS011;590;48.772;8.846;2023-03-03T16:10:06;9.50;;;9.00;;
253;SDS011;590;48.772;8.846;2023-03-03T16:12:45;9.93;;;9.43;;
253;SDS011;590;48.772;8.846;2023-03-03T16:15:22;9.67;;;9.17;;
253;SDS011;590;48.772;8.846;2023-03-03T16:18:10;10.20;;;9.73;;
253;SDS011;590;48.772;8.846;2023-03-03T16:20:48;9.37;;;8.87;;
253;SDS011;590;48.772;8.846;2023-03-03T16:23:29;9.40;;;8.90;;
253;SDS011;590;48.772;8.846;2023-03-03T16:26:10;8.63;;;8.13;;
253;SDS011;590;48.772;8.846;2023-03-03T16:28:49;9.37;;;8.87;;
253;SDS011;590;48.772;8.846;2023-03-03T16:31:39;11.20;;;9.00;;
253;SDS011;590;48.772;8.846;2023-03-03T16:34:13;9.43;;;8.93;;
253;SDS011;590;48.772;8.846;2023-03-03T16:36:51;8.90;;;8.40;;
253;SDS011;590;48.772;8.846;2023-03-03T16:39:28;9.40;;;8.90;;
253;SDS011;590;48.772;8.846;2023-03-03T16:42:12;9.00;;;8.50;;